createdAt,value
2018-12-20T00:00:00.459Z,5.90
2018-12-20T00:01:06.053Z,5.80
2018-12-20T00:02:11.757Z,5.80
2018-12-20T00:03:17.251Z,5.80
2018-12-20T00:04:22.782Z,5.80
2018-12-20T00:05:28.380Z,5.80
2018-12-20T00:06:33.832Z,5.80
2018-12-20T00:07:39.215Z,5.80
2018-12-20T00:08:44.919Z,5.80
2018-12-20T00:11:06.780Z,5.90
2018-12-20T00:12:12.500Z,5.90
2018-12-20T00:13:17.918Z,5.90
2018-12-20T00:14:29.752Z,5.90
2018-12-20T00:15:30.903Z,5.90
2018-12-20T00:16:36.410Z,5.90
2018-12-20T00:17:50.260Z,5.90
2018-12-20T00:18:55.999Z,5.90
2018-12-20T00:20:01.695Z,5.90
2018-12-20T00:21:07.398Z,5.90
2018-12-20T00:22:13.002Z,5.90
2018-12-20T00:23:18.518Z,5.80
2018-12-20T00:24:24.214Z,5.80
2018-12-20T00:25:29.756Z,5.70
2018-12-20T00:26:35.285Z,5.80
2018-12-20T00:27:40.955Z,5.80
2018-12-20T00:28:46.389Z,5.80
2018-12-20T00:29:51.982Z,5.80
2018-12-20T00:30:57.647Z,5.80
2018-12-20T00:32:03.114Z,5.80
2018-12-20T00:33:08.909Z,5.80
2018-12-20T00:34:14.437Z,5.80
2018-12-20T00:35:20.120Z,5.80
2018-12-20T00:36:25.658Z,5.80
2018-12-20T00:37:31.228Z,5.80
2018-12-20T00:38:37.063Z,5.80
2018-12-20T00:39:42.507Z,5.80
2018-12-20T00:40:48.153Z,5.80
2018-12-20T00:41:53.620Z,5.90
2018-12-20T00:42:59.015Z,5.90
2018-12-20T00:44:04.640Z,6.00
2018-12-20T00:45:10.135Z,6.00
2018-12-20T00:46:15.610Z,6.00
2018-12-20T00:47:21.028Z,6.10
2018-12-20T00:48:26.442Z,6.10
2018-12-20T00:49:31.937Z,6.10
2018-12-20T00:50:37.646Z,6.20
2018-12-20T00:51:43.312Z,6.20
2018-12-20T00:52:48.981Z,6.20
2018-12-20T00:53:54.420Z,6.20
2018-12-20T00:54:59.853Z,6.20
2018-12-20T00:56:05.482Z,6.20
2018-12-20T00:57:11.011Z,6.30
2018-12-20T00:58:16.475Z,6.30
2018-12-20T00:59:21.942Z,6.30
2018-12-20T01:00:27.401Z,6.40
2018-12-20T01:01:32.793Z,6.40
2018-12-20T01:02:38.204Z,6.40
2018-12-20T01:03:43.708Z,6.30
2018-12-20T01:04:49.428Z,6.40
2018-12-20T01:05:54.813Z,6.40
2018-12-20T01:07:00.307Z,6.30
2018-12-20T01:08:05.726Z,6.40
2018-12-20T01:09:11.274Z,6.30
2018-12-20T01:10:16.694Z,6.30
2018-12-20T01:11:22.320Z,6.30
2018-12-20T01:12:28.336Z,6.30
2018-12-20T01:13:34.256Z,6.30
2018-12-20T01:14:45.385Z,6.40
2018-12-20T01:15:47.307Z,6.40
2018-12-20T01:16:52.859Z,6.40
2018-12-20T01:17:58.504Z,6.40
2018-12-20T01:19:04.211Z,6.40
2018-12-20T01:20:11.172Z,6.40
2018-12-20T01:21:16.736Z,6.50
2018-12-20T01:22:22.188Z,6.50
2018-12-20T01:23:27.767Z,6.40
2018-12-20T01:24:33.463Z,6.50
2018-12-20T01:25:39.081Z,6.50
2018-12-20T01:26:44.651Z,6.50
2018-12-20T01:27:50.117Z,6.50
2018-12-20T01:28:55.480Z,6.50
2018-12-20T01:30:01.154Z,6.50
2018-12-20T01:31:06.678Z,6.50
2018-12-20T01:32:12.498Z,6.50
2018-12-20T01:33:17.972Z,6.50
2018-12-20T01:34:23.466Z,6.50
2018-12-20T01:35:29.232Z,6.40
2018-12-20T01:36:34.830Z,6.40
2018-12-20T01:37:41.021Z,6.40
2018-12-20T01:38:46.510Z,6.50
2018-12-20T01:39:51.883Z,6.50
2018-12-20T01:40:57.487Z,6.50
2018-12-20T01:42:02.930Z,6.50
2018-12-20T01:43:08.469Z,6.50
2018-12-20T01:44:13.963Z,6.50
2018-12-20T01:45:19.559Z,6.60
2018-12-20T01:46:25.015Z,6.50
2018-12-20T01:47:30.704Z,6.60
2018-12-20T01:48:36.213Z,6.60
2018-12-20T01:49:41.828Z,6.60
2018-12-20T01:50:47.339Z,6.60
2018-12-20T01:51:52.749Z,6.60
2018-12-20T01:52:58.507Z,6.60
2018-12-20T01:54:04.156Z,6.60
2018-12-20T01:55:09.901Z,6.60
2018-12-20T01:56:15.425Z,6.60
2018-12-20T01:57:20.902Z,6.60
2018-12-20T01:58:26.653Z,6.60
2018-12-20T01:59:32.227Z,6.60
2018-12-20T02:00:37.879Z,6.50
2018-12-20T02:01:43.403Z,6.60
2018-12-20T02:02:49.696Z,6.60
2018-12-20T02:03:55.322Z,6.50
2018-12-20T02:05:00.846Z,6.60
2018-12-20T02:06:06.238Z,6.50
2018-12-20T02:07:11.741Z,6.50
2018-12-20T02:08:17.230Z,6.50
2018-12-20T02:09:22.727Z,6.50
2018-12-20T02:10:28.169Z,6.40
2018-12-20T02:11:33.554Z,6.50
2018-12-20T02:12:38.973Z,6.40
2018-12-20T02:13:44.493Z,6.40
2018-12-20T02:14:49.950Z,6.40
2018-12-20T02:15:55.391Z,6.40
2018-12-20T02:17:00.868Z,6.40
2018-12-20T02:18:06.576Z,6.40
2018-12-20T02:19:12.211Z,6.40
2018-12-20T02:20:18.524Z,6.40
2018-12-20T02:21:24.060Z,6.30
2018-12-20T02:22:29.592Z,6.30
2018-12-20T02:23:35.036Z,6.30
2018-12-20T02:24:40.458Z,6.40
2018-12-20T02:25:46.066Z,6.40
2018-12-20T02:26:51.574Z,6.40
2018-12-20T02:27:57.246Z,6.40
2018-12-20T02:29:02.853Z,6.50
2018-12-20T02:30:10.835Z,6.50
2018-12-20T02:31:16.583Z,6.50
2018-12-20T02:32:22.484Z,6.50
2018-12-20T02:33:28.028Z,6.50
2018-12-20T02:34:33.813Z,6.50
2018-12-20T02:35:39.613Z,6.50
2018-12-20T02:36:45.206Z,6.50
2018-12-20T02:37:50.640Z,6.50
2018-12-20T02:38:56.268Z,6.60
2018-12-20T02:40:01.851Z,6.60
2018-12-20T02:41:07.307Z,6.60
2018-12-20T02:42:12.698Z,6.60
2018-12-20T02:43:18.515Z,6.60
2018-12-20T02:44:24.081Z,6.60
2018-12-20T02:45:29.697Z,6.70
2018-12-20T02:46:35.512Z,6.70
2018-12-20T02:47:41.088Z,6.70
2018-12-20T02:48:46.497Z,6.70
2018-12-20T02:49:51.962Z,6.80
2018-12-20T02:50:57.482Z,6.80
2018-12-20T02:52:02.923Z,6.80
2018-12-20T02:53:08.390Z,6.80
2018-12-20T02:54:13.855Z,6.80
2018-12-20T02:55:20.027Z,6.80
2018-12-20T02:56:25.678Z,6.80
2018-12-20T02:57:31.365Z,6.80
2018-12-20T02:58:36.973Z,6.80
2018-12-20T02:59:42.383Z,6.80
2018-12-20T03:00:47.868Z,6.80
2018-12-20T03:01:53.327Z,6.80
2018-12-20T03:02:59.122Z,6.80
2018-12-20T03:04:04.934Z,6.80
2018-12-20T03:05:10.341Z,6.80
2018-12-20T03:06:15.768Z,6.80
2018-12-20T03:07:21.272Z,6.80
2018-12-20T03:08:26.764Z,6.80
2018-12-20T03:09:32.387Z,6.80
2018-12-20T03:10:37.920Z,6.80
2018-12-20T03:11:43.466Z,6.80
2018-12-20T03:12:49.044Z,6.80
2018-12-20T03:13:54.604Z,6.80
2018-12-20T03:15:00.084Z,6.90
2018-12-20T03:16:05.579Z,6.80
2018-12-20T03:17:11.152Z,6.80
2018-12-20T03:18:17.043Z,6.80
2018-12-20T03:19:22.603Z,6.80
2018-12-20T03:20:27.993Z,6.90
2018-12-20T03:21:33.426Z,6.90
2018-12-20T03:22:39.080Z,6.90
2018-12-20T03:23:44.690Z,6.90
2018-12-20T03:24:50.065Z,6.90
2018-12-20T03:25:55.793Z,6.90
2018-12-20T03:27:01.561Z,6.90
2018-12-20T03:28:07.123Z,7.00
2018-12-20T03:29:12.547Z,6.90
2018-12-20T03:30:18.065Z,7.00
2018-12-20T03:31:23.448Z,7.00
2018-12-20T03:32:28.979Z,7.00
2018-12-20T03:33:34.446Z,7.00
2018-12-20T03:34:39.909Z,6.90
2018-12-20T03:35:45.415Z,6.90
2018-12-20T03:36:50.871Z,6.90
2018-12-20T03:37:56.416Z,6.90
2018-12-20T03:39:01.900Z,6.90
2018-12-20T03:40:07.877Z,6.90
2018-12-20T03:41:13.439Z,6.90
2018-12-20T03:42:18.998Z,6.90
2018-12-20T03:43:24.418Z,6.90
2018-12-20T03:44:29.999Z,6.90
2018-12-20T03:45:35.969Z,6.90
2018-12-20T03:46:42.134Z,6.90
2018-12-20T03:47:47.624Z,6.90
2018-12-20T03:48:53.190Z,6.90
2018-12-20T03:49:59.457Z,6.90
2018-12-20T03:51:05.031Z,6.90
2018-12-20T03:52:10.472Z,6.90
2018-12-20T03:53:16.116Z,6.90
2018-12-20T03:54:22.153Z,6.90
2018-12-20T03:55:27.844Z,6.90
2018-12-20T03:56:33.699Z,6.80
2018-12-20T03:57:39.327Z,6.80
2018-12-20T03:58:44.853Z,6.80
2018-12-20T03:59:50.307Z,6.80
2018-12-20T04:00:55.782Z,6.90
2018-12-20T04:02:01.506Z,6.90
2018-12-20T04:03:07.128Z,6.90
2018-12-20T04:04:12.705Z,6.90
2018-12-20T04:05:18.185Z,6.90
2018-12-20T04:06:23.839Z,6.90
2018-12-20T04:07:29.656Z,6.90
2018-12-20T04:08:35.177Z,7.00
2018-12-20T04:09:40.780Z,7.00
2018-12-20T04:10:46.267Z,7.00
2018-12-20T04:11:51.710Z,7.00
2018-12-20T04:12:57.217Z,7.00
2018-12-20T04:14:03.146Z,7.00
2018-12-20T04:15:09.109Z,7.00
2018-12-20T04:16:14.762Z,7.00
2018-12-20T04:17:20.327Z,7.00
2018-12-20T04:18:25.933Z,7.00
2018-12-20T04:19:31.722Z,7.00
2018-12-20T04:20:37.338Z,7.00
2018-12-20T04:21:42.795Z,7.00
2018-12-20T04:22:48.209Z,7.00
2018-12-20T04:23:53.739Z,7.00
2018-12-20T04:24:59.132Z,7.00
2018-12-20T04:26:04.559Z,7.00
2018-12-20T04:27:10.009Z,7.00
2018-12-20T04:28:15.546Z,7.00
2018-12-20T04:29:21.220Z,7.00
2018-12-20T04:30:26.714Z,7.00
2018-12-20T04:31:32.813Z,7.00
2018-12-20T04:32:38.343Z,7.00
2018-12-20T04:33:43.835Z,7.00
2018-12-20T04:34:49.582Z,7.00
2018-12-20T04:35:55.152Z,7.00
2018-12-20T04:37:00.742Z,7.00
2018-12-20T04:38:06.429Z,7.00
2018-12-20T04:39:11.892Z,7.00
2018-12-20T04:40:17.770Z,7.00
2018-12-20T04:41:24.295Z,7.00
2018-12-20T04:42:29.718Z,7.00
2018-12-20T04:43:35.171Z,7.00
2018-12-20T04:44:40.572Z,7.00
2018-12-20T04:45:46.994Z,7.00
2018-12-20T04:46:52.603Z,7.10
2018-12-20T04:47:58.043Z,7.10
2018-12-20T04:49:03.605Z,7.10
2018-12-20T04:50:09.261Z,7.10
2018-12-20T04:51:14.849Z,7.10
2018-12-20T04:52:20.627Z,7.10
2018-12-20T04:53:26.214Z,7.10
2018-12-20T04:54:31.714Z,7.10
2018-12-20T04:55:37.102Z,7.10
2018-12-20T04:56:42.563Z,7.10
2018-12-20T04:57:48.095Z,7.20
2018-12-20T04:58:53.754Z,7.20
2018-12-20T04:59:59.533Z,7.10
2018-12-20T05:01:05.577Z,7.10
2018-12-20T05:02:11.561Z,7.10
2018-12-20T05:03:17.194Z,7.10
2018-12-20T05:04:23.044Z,7.20
2018-12-20T05:05:28.648Z,7.10
2018-12-20T05:06:34.223Z,7.10
2018-12-20T05:07:39.653Z,7.20
2018-12-20T05:08:45.065Z,7.20
2018-12-20T05:09:50.659Z,7.20
2018-12-20T05:10:56.329Z,7.20
2018-12-20T05:12:02.012Z,7.20
2018-12-20T05:13:07.489Z,7.20
2018-12-20T05:14:12.950Z,7.20
2018-12-20T05:15:18.927Z,7.20
2018-12-20T05:16:24.483Z,7.20
2018-12-20T05:17:29.916Z,7.20
2018-12-20T05:18:35.487Z,7.20
2018-12-20T05:19:40.944Z,7.20
2018-12-20T05:20:46.347Z,7.20
2018-12-20T05:21:51.720Z,7.20
2018-12-20T05:22:57.191Z,7.30
2018-12-20T05:24:02.743Z,7.30
2018-12-20T05:25:08.594Z,7.30
2018-12-20T05:26:14.044Z,7.20
2018-12-20T05:27:19.441Z,7.30
2018-12-20T05:28:24.853Z,7.20
2018-12-20T05:29:30.544Z,7.30
2018-12-20T05:30:36.173Z,7.30
2018-12-20T05:31:41.735Z,7.20
2018-12-20T05:32:47.262Z,7.30
2018-12-20T05:33:52.655Z,7.30
2018-12-20T05:34:58.277Z,7.30
2018-12-20T05:36:03.843Z,7.30
2018-12-20T05:37:09.368Z,7.30
2018-12-20T05:38:15.175Z,7.30
2018-12-20T05:39:20.774Z,7.30
2018-12-20T05:40:26.574Z,7.30
2018-12-20T05:41:32.413Z,7.30
2018-12-20T05:42:38.069Z,7.30
2018-12-20T05:43:43.534Z,7.30
2018-12-20T05:44:49.149Z,7.30
2018-12-20T05:45:54.627Z,7.30
2018-12-20T05:47:00.172Z,7.30
2018-12-20T05:48:05.833Z,7.30
2018-12-20T05:49:11.453Z,7.30
2018-12-20T05:50:17.023Z,7.30
2018-12-20T05:51:22.609Z,7.30
2018-12-20T05:52:28.010Z,7.30
2018-12-20T05:53:34.017Z,7.30
2018-12-20T05:54:39.827Z,7.30
2018-12-20T05:55:45.364Z,7.30
2018-12-20T05:56:50.833Z,7.30
2018-12-20T05:57:56.249Z,7.30
2018-12-20T05:59:01.772Z,7.30
2018-12-20T06:00:09.434Z,7.30
2018-12-20T06:01:14.987Z,7.30
2018-12-20T06:02:20.401Z,7.30
2018-12-20T06:03:28.389Z,7.30
2018-12-20T06:04:34.118Z,7.30
2018-12-20T06:05:40.216Z,7.30
2018-12-20T06:06:45.635Z,7.30
2018-12-20T06:07:51.128Z,7.30
2018-12-20T06:08:56.516Z,7.30
2018-12-20T06:10:01.997Z,7.20
2018-12-20T06:11:07.486Z,7.20
2018-12-20T06:12:13.080Z,7.20
2018-12-20T06:13:18.597Z,7.20
2018-12-20T06:14:24.121Z,7.10
2018-12-20T06:15:29.583Z,7.10
2018-12-20T06:16:35.053Z,7.10
2018-12-20T06:17:40.642Z,7.10
2018-12-20T06:18:46.258Z,7.00
2018-12-20T06:19:52.826Z,7.00
2018-12-20T06:20:58.665Z,7.00
2018-12-20T06:22:04.612Z,7.00
2018-12-20T06:23:10.056Z,7.00
2018-12-20T06:24:15.763Z,7.00
2018-12-20T06:25:21.678Z,7.00
2018-12-20T06:26:27.183Z,7.00
2018-12-20T06:27:32.707Z,6.90
2018-12-20T06:28:38.083Z,6.90
2018-12-20T06:29:43.483Z,6.90
2018-12-20T06:30:49.056Z,6.90
2018-12-20T06:31:54.427Z,6.80
2018-12-20T06:32:59.936Z,6.80
2018-12-20T06:34:05.760Z,6.80
2018-12-20T06:35:11.200Z,6.80
2018-12-20T06:36:16.579Z,6.80
2018-12-20T06:37:21.965Z,6.80
2018-12-20T06:38:27.652Z,6.70
2018-12-20T06:39:33.107Z,6.80
2018-12-20T06:40:38.503Z,6.80
2018-12-20T06:41:44.486Z,6.80
2018-12-20T06:42:49.998Z,6.80
2018-12-20T06:43:55.566Z,6.80
2018-12-20T06:45:01.071Z,6.80
2018-12-20T06:46:06.633Z,6.80
2018-12-20T06:47:12.040Z,6.80
2018-12-20T06:48:17.452Z,6.80
2018-12-20T06:49:22.866Z,6.80
2018-12-20T06:50:28.302Z,6.80
2018-12-20T06:51:33.765Z,6.80
2018-12-20T06:52:39.278Z,6.80
2018-12-20T06:53:44.763Z,6.80
2018-12-20T06:54:50.148Z,6.80
2018-12-20T06:55:55.670Z,6.80
2018-12-20T06:57:01.092Z,6.80
2018-12-20T06:58:06.607Z,6.80
2018-12-20T06:59:12.122Z,6.80
2018-12-20T07:00:17.557Z,6.80
2018-12-20T07:01:22.954Z,6.80
2018-12-20T07:02:28.447Z,6.80
2018-12-20T07:03:33.923Z,6.80
2018-12-20T07:04:39.385Z,6.70
2018-12-20T07:05:44.744Z,6.70
2018-12-20T07:06:50.166Z,6.70
2018-12-20T07:07:55.663Z,6.70
2018-12-20T07:09:01.162Z,6.70
2018-12-20T07:10:07.401Z,6.70
2018-12-20T07:11:12.815Z,6.70
2018-12-20T07:12:18.191Z,6.70
2018-12-20T07:13:23.765Z,6.70
2018-12-20T07:14:29.220Z,6.70
2018-12-20T07:15:34.720Z,6.70
2018-12-20T07:16:40.081Z,6.70
2018-12-20T07:17:45.464Z,6.70
2018-12-20T07:18:51.048Z,6.70
2018-12-20T07:19:56.394Z,6.70
2018-12-20T07:21:02.406Z,6.80
2018-12-20T07:22:07.905Z,6.80
2018-12-20T07:23:13.363Z,6.70
2018-12-20T07:24:18.938Z,6.80
2018-12-20T07:25:24.407Z,6.80
2018-12-20T07:26:29.784Z,6.80
2018-12-20T07:27:36.292Z,6.80
2018-12-20T07:28:42.426Z,6.80
2018-12-20T07:29:47.860Z,6.80
2018-12-20T07:30:53.320Z,6.90
2018-12-20T07:31:58.808Z,6.90
2018-12-20T07:33:04.294Z,6.90
2018-12-20T07:34:09.751Z,6.90
2018-12-20T07:44:29.787Z,7.00
2018-12-20T07:45:35.215Z,7.00
2018-12-20T07:46:40.799Z,7.00
2018-12-20T07:47:46.210Z,7.00
2018-12-20T07:48:51.620Z,7.00
2018-12-20T07:49:57.074Z,7.00
2018-12-20T07:51:03.643Z,7.00
2018-12-20T07:52:09.395Z,7.10
2018-12-20T07:53:14.778Z,7.10
2018-12-20T07:54:20.191Z,7.10
2018-12-20T07:55:25.579Z,7.10
2018-12-20T07:56:31.211Z,7.10
2018-12-20T07:57:36.583Z,7.20
2018-12-20T07:58:42.102Z,7.20
2018-12-20T07:59:47.463Z,7.20
2018-12-20T08:00:52.994Z,7.20
2018-12-20T08:02:01.689Z,7.20
2018-12-20T08:03:07.056Z,7.20
2018-12-20T08:04:12.447Z,7.20
2018-12-20T08:05:17.819Z,7.30
2018-12-20T08:06:23.310Z,7.30
2018-12-20T08:07:28.871Z,7.30
2018-12-20T08:08:34.373Z,7.30
2018-12-20T08:09:39.807Z,7.30
2018-12-20T08:10:45.451Z,7.30
2018-12-20T08:11:50.921Z,7.30
2018-12-20T08:12:56.416Z,7.30
2018-12-20T08:14:02.114Z,7.30
2018-12-20T08:15:08.044Z,7.30
2018-12-20T08:16:13.396Z,7.30
2018-12-20T08:17:18.762Z,7.30
2018-12-20T08:18:24.188Z,7.30
2018-12-20T08:19:36.304Z,7.30
2018-12-20T08:20:37.039Z,7.40
2018-12-20T08:21:42.422Z,7.40
2018-12-20T08:22:47.906Z,7.40
2018-12-20T08:23:53.535Z,7.40
2018-12-20T08:24:58.935Z,7.40
2018-12-20T08:26:04.561Z,7.40
2018-12-20T08:27:10.003Z,7.40
2018-12-20T08:28:15.394Z,7.40
2018-12-20T08:29:21.293Z,7.40
2018-12-20T08:30:26.815Z,7.40
2018-12-20T08:31:32.281Z,7.40
2018-12-20T08:32:37.717Z,7.50
2018-12-20T08:33:43.735Z,7.50
2018-12-20T08:34:49.143Z,7.50
2018-12-20T08:35:54.545Z,7.50
2018-12-20T08:36:59.930Z,7.50
2018-12-20T08:38:05.384Z,7.50
2018-12-20T08:39:10.754Z,7.50
2018-12-20T08:40:16.441Z,7.50
2018-12-20T08:41:22.058Z,7.50
2018-12-20T08:42:27.495Z,7.50
2018-12-20T08:43:32.935Z,7.50
2018-12-20T08:44:38.399Z,7.50
2018-12-20T08:45:43.980Z,7.50
2018-12-20T08:46:54.389Z,7.50
2018-12-20T08:47:56.798Z,7.50
2018-12-20T08:49:02.550Z,7.50
2018-12-20T08:50:08.611Z,7.50
2018-12-20T08:51:14.030Z,7.60
2018-12-20T08:52:19.455Z,7.60
2018-12-20T08:53:24.885Z,7.50
2018-12-20T08:54:30.299Z,7.60
2018-12-20T08:55:35.748Z,7.60
2018-12-20T08:56:41.138Z,7.60
2018-12-20T08:57:46.620Z,7.60
2018-12-20T08:58:51.971Z,7.60
2018-12-20T08:59:57.423Z,7.60
2018-12-20T09:01:03.133Z,7.60
2018-12-20T09:02:08.663Z,7.60
2018-12-20T09:03:14.042Z,7.60
2018-12-20T09:04:19.490Z,7.60
2018-12-20T09:05:25.278Z,7.60
2018-12-20T09:06:30.899Z,7.70
2018-12-20T09:07:36.346Z,7.60
2018-12-20T09:08:41.897Z,7.60
2018-12-20T09:09:47.305Z,7.60
2018-12-20T09:10:52.668Z,7.60
2018-12-20T09:11:58.140Z,7.60
2018-12-20T09:13:09.619Z,7.70
2018-12-20T09:14:11.166Z,7.60
2018-12-20T09:15:16.530Z,7.70
2018-12-20T09:16:22.008Z,7.70
2018-12-20T09:17:27.399Z,7.70
2018-12-20T09:18:33.035Z,7.70
2018-12-20T09:19:38.410Z,7.70
2018-12-20T09:20:43.891Z,7.70
2018-12-20T09:21:49.250Z,7.70
2018-12-20T09:22:54.660Z,7.70
2018-12-20T09:24:00.057Z,7.70
2018-12-20T09:25:05.887Z,7.70
2018-12-20T09:26:11.638Z,7.70
2018-12-20T09:27:17.042Z,7.70
2018-12-20T09:28:22.525Z,7.60
2018-12-20T09:29:27.926Z,7.70
2018-12-20T09:30:33.386Z,7.70
2018-12-20T09:31:38.849Z,7.70
2018-12-20T09:32:44.199Z,7.70
2018-12-20T09:33:50.029Z,7.70
2018-12-20T09:34:55.401Z,7.70
2018-12-20T09:36:00.839Z,7.70
2018-12-20T09:37:06.312Z,7.70
2018-12-20T09:38:11.651Z,7.70
2018-12-20T09:39:17.083Z,7.70
2018-12-20T09:40:22.689Z,7.70
2018-12-20T09:41:28.042Z,7.70
2018-12-20T09:42:33.659Z,7.70
2018-12-20T09:43:39.179Z,7.70
2018-12-20T09:44:44.736Z,7.60
2018-12-20T09:45:50.132Z,7.70
2018-12-20T09:48:20.676Z,7.70
2018-12-20T09:49:26.038Z,7.70
2018-12-20T09:50:31.478Z,7.70
2018-12-20T09:51:37.009Z,7.70
2018-12-20T09:52:42.455Z,7.70
2018-12-20T09:53:47.917Z,7.70
2018-12-20T09:54:53.308Z,7.70
2018-12-20T09:55:58.801Z,7.70
2018-12-20T09:57:04.349Z,7.70
2018-12-20T09:58:09.896Z,7.70
2018-12-20T09:59:15.412Z,7.70
2018-12-20T10:00:20.862Z,7.70
2018-12-20T10:01:27.030Z,7.70
2018-12-20T10:02:32.447Z,7.70
2018-12-20T10:03:37.976Z,7.70
2018-12-20T10:04:43.384Z,7.70
2018-12-20T10:05:48.772Z,7.70
2018-12-20T10:06:54.155Z,7.70
2018-12-20T10:07:59.603Z,7.70
2018-12-20T10:09:07.916Z,7.70
2018-12-20T10:10:13.355Z,7.70
2018-12-20T10:11:18.821Z,7.70
2018-12-20T10:12:24.742Z,7.70
2018-12-20T10:13:30.128Z,7.70
2018-12-20T10:14:35.721Z,7.70
2018-12-20T10:15:41.100Z,7.70
2018-12-20T10:16:46.987Z,7.70
2018-12-20T10:17:52.384Z,7.70
2018-12-20T10:18:57.771Z,7.70
2018-12-20T10:20:03.442Z,7.70
2018-12-20T10:21:09.327Z,7.70
2018-12-20T10:22:14.836Z,7.70
2018-12-20T10:23:20.247Z,7.70
2018-12-20T10:24:25.812Z,7.70
2018-12-20T10:25:31.253Z,7.70
2018-12-20T10:26:36.805Z,7.70
2018-12-20T10:27:42.225Z,7.70
2018-12-20T10:28:47.681Z,7.70
2018-12-20T10:29:53.060Z,7.70
2018-12-20T10:30:58.581Z,7.70
2018-12-20T10:32:04.701Z,7.80
2018-12-20T10:33:10.087Z,7.70
2018-12-20T10:34:15.575Z,7.80
2018-12-20T10:35:20.959Z,7.80
2018-12-20T10:36:26.359Z,7.80
2018-12-20T10:37:31.754Z,7.80
2018-12-20T10:38:37.130Z,7.80
2018-12-20T10:39:42.635Z,7.80
2018-12-20T10:40:48.111Z,7.80
2018-12-20T10:41:53.492Z,7.90
2018-12-20T10:42:59.088Z,7.90
2018-12-20T10:44:04.553Z,7.90
2018-12-20T10:45:10.082Z,7.90
2018-12-20T10:46:15.576Z,8.00
2018-12-20T10:47:29.117Z,8.00
2018-12-20T10:48:33.422Z,8.00
2018-12-20T10:49:38.843Z,8.00
2018-12-20T10:50:44.211Z,8.00
2018-12-20T10:51:49.659Z,8.10
2018-12-20T10:52:55.293Z,8.10
2018-12-20T10:54:00.748Z,8.10
2018-12-20T10:55:06.942Z,8.20
2018-12-20T10:56:12.341Z,8.20
2018-12-20T10:57:17.694Z,8.30
2018-12-20T10:58:23.067Z,8.30
2018-12-20T10:59:28.474Z,8.40
2018-12-20T11:00:39.416Z,8.40
2018-12-20T11:03:17.539Z,8.40
2018-12-20T11:04:28.404Z,8.40
2018-12-20T11:05:38.890Z,8.40
2018-12-20T11:07:52.325Z,8.40
2018-12-20T11:09:03.803Z,8.50
2018-12-20T11:10:42.452Z,8.60
2018-12-20T11:11:53.032Z,8.60
2018-12-20T11:14:23.190Z,8.70
2018-12-20T11:15:28.560Z,8.70
2018-12-20T11:16:34.082Z,8.70
2018-12-20T11:17:39.478Z,8.60
2018-12-20T11:18:45.056Z,8.60
2018-12-20T11:19:50.439Z,8.60
2018-12-20T11:20:55.955Z,8.50
2018-12-20T11:22:01.855Z,8.50
2018-12-20T11:23:07.261Z,8.50
2018-12-20T11:24:12.646Z,8.50
2018-12-20T11:25:18.101Z,8.50
2018-12-20T11:26:23.575Z,8.50
2018-12-20T11:27:29.022Z,8.50
2018-12-20T11:28:34.466Z,8.50
2018-12-20T11:29:39.956Z,8.50
2018-12-20T11:30:45.368Z,8.50
2018-12-20T11:31:50.776Z,8.40
2018-12-20T11:32:56.187Z,8.40
2018-12-20T11:34:01.760Z,8.40
2018-12-20T11:35:08.832Z,8.40
2018-12-20T11:36:14.252Z,8.40
2018-12-20T11:37:19.736Z,8.40
2018-12-20T11:38:25.470Z,8.50
2018-12-20T11:39:31.202Z,8.40
2018-12-20T11:40:36.827Z,8.40
2018-12-20T11:41:42.296Z,8.40
2018-12-20T11:42:47.826Z,8.50
2018-12-20T11:43:53.199Z,8.40
2018-12-20T11:44:58.606Z,8.50
2018-12-20T11:46:04.154Z,8.40
2018-12-20T11:47:13.630Z,8.40
2018-12-20T11:48:19.234Z,8.50
2018-12-20T11:49:24.660Z,8.40
2018-12-20T11:50:30.631Z,8.40
2018-12-20T11:51:36.010Z,8.40
2018-12-20T11:52:42.422Z,8.40
2018-12-20T11:53:48.216Z,8.40
2018-12-20T11:54:54.310Z,8.40
2018-12-20T11:56:00.033Z,8.40
2018-12-20T11:57:05.900Z,8.40
2018-12-20T11:58:11.338Z,8.40
2018-12-20T11:59:16.750Z,8.40
2018-12-20T12:00:22.322Z,8.30
2018-12-20T12:01:28.063Z,8.40
2018-12-20T12:02:33.781Z,8.40
2018-12-20T12:03:39.161Z,8.40
2018-12-20T12:04:44.548Z,8.40
2018-12-20T12:05:49.991Z,8.40
2018-12-20T12:06:55.700Z,8.40
2018-12-20T12:08:01.121Z,8.40
2018-12-20T12:09:08.995Z,8.40
2018-12-20T12:10:14.378Z,8.40
2018-12-20T12:11:19.736Z,8.40
2018-12-20T12:12:25.665Z,8.40
2018-12-20T12:13:31.284Z,8.40
2018-12-20T12:14:36.684Z,8.40
2018-12-20T12:15:42.076Z,8.40
2018-12-20T12:16:47.464Z,8.40
2018-12-20T12:17:54.358Z,8.30
2018-12-20T12:19:00.338Z,8.30
2018-12-20T12:20:07.531Z,8.30
2018-12-20T12:21:12.979Z,8.40
2018-12-20T12:22:18.498Z,8.40
2018-12-20T12:23:23.949Z,8.40
2018-12-20T12:24:29.377Z,8.40
2018-12-20T12:25:35.015Z,8.40
2018-12-20T12:26:40.382Z,8.40
2018-12-20T12:27:46.017Z,8.50
2018-12-20T12:28:51.476Z,8.50
2018-12-20T12:29:56.875Z,8.50
2018-12-20T12:31:02.476Z,8.50
2018-12-20T12:32:07.834Z,8.50
2018-12-20T12:33:13.284Z,8.50
2018-12-20T12:34:18.671Z,8.50
2018-12-20T12:35:24.226Z,8.50
2018-12-20T12:36:29.651Z,8.50
2018-12-20T12:37:35.134Z,8.50
2018-12-20T12:38:40.515Z,8.50
2018-12-20T12:39:45.950Z,8.50
2018-12-20T12:40:51.305Z,8.50
2018-12-20T12:41:56.946Z,8.50
2018-12-20T12:43:02.396Z,8.50
2018-12-20T12:44:09.405Z,8.50
2018-12-20T12:45:15.150Z,8.50
2018-12-20T12:46:20.624Z,8.50
2018-12-20T12:47:31.152Z,8.50
2018-12-20T12:48:36.829Z,8.50
2018-12-20T12:49:42.564Z,8.50
2018-12-20T12:50:47.950Z,8.50
2018-12-20T12:51:53.562Z,8.50
2018-12-20T12:52:59.217Z,8.40
2018-12-20T12:54:04.646Z,8.40
2018-12-20T12:55:10.097Z,8.40
2018-12-20T12:56:15.601Z,8.40
2018-12-20T12:57:22.391Z,8.40
2018-12-20T12:58:28.084Z,8.40
2018-12-20T12:59:33.520Z,8.40
2018-12-20T13:00:39.216Z,8.40
2018-12-20T13:01:44.672Z,8.40
2018-12-20T13:02:50.122Z,8.40
2018-12-20T13:03:57.378Z,8.40
2018-12-20T13:05:03.188Z,8.40
2018-12-20T13:06:08.651Z,8.40
2018-12-20T13:07:14.286Z,8.40
2018-12-20T13:08:19.885Z,8.40
2018-12-20T13:09:25.669Z,8.30
2018-12-20T13:10:31.095Z,8.40
2018-12-20T13:11:36.708Z,8.40
2018-12-20T13:12:42.388Z,8.40
2018-12-20T13:13:48.857Z,8.40
2018-12-20T13:14:54.270Z,8.40
2018-12-20T13:15:59.930Z,8.40
2018-12-20T13:17:05.544Z,8.40
2018-12-20T13:18:13.809Z,8.40
2018-12-20T13:19:18.574Z,8.40
2018-12-20T13:20:24.004Z,8.40
2018-12-20T13:21:29.542Z,8.40
2018-12-20T13:22:35.129Z,8.30
2018-12-20T13:23:40.539Z,8.40
2018-12-20T13:24:45.927Z,8.40
2018-12-20T13:25:51.356Z,8.40
2018-12-20T13:26:56.783Z,8.40
2018-12-20T13:28:02.164Z,8.40
2018-12-20T13:29:08.007Z,8.40
2018-12-20T13:30:14.349Z,8.30
2018-12-20T13:31:19.780Z,8.30
2018-12-20T13:32:25.154Z,8.30
2018-12-20T13:33:30.800Z,8.30
2018-12-20T13:34:36.281Z,8.30
2018-12-20T13:35:41.912Z,8.30
2018-12-20T13:36:47.260Z,8.30
2018-12-20T13:37:52.691Z,8.30
2018-12-20T13:38:58.063Z,8.30
2018-12-20T13:40:04.104Z,8.30
2018-12-20T13:41:09.721Z,8.40
2018-12-20T13:42:15.265Z,8.30
2018-12-20T13:43:20.746Z,8.40
2018-12-20T13:44:26.882Z,8.40
2018-12-20T13:45:32.323Z,8.40
2018-12-20T13:46:37.797Z,8.40
2018-12-20T13:47:43.156Z,8.40
2018-12-20T13:48:48.515Z,8.30
2018-12-20T13:49:54.004Z,8.40
2018-12-20T13:50:59.648Z,8.30
2018-12-20T13:52:05.097Z,8.30
2018-12-20T13:53:16.846Z,8.30
2018-12-20T13:54:22.308Z,8.30
2018-12-20T13:55:27.677Z,8.20
2018-12-20T13:56:33.669Z,8.20
2018-12-20T13:57:39.070Z,8.20
2018-12-20T13:58:44.474Z,8.20
2018-12-20T13:59:49.861Z,8.20
2018-12-20T14:00:55.407Z,8.20
2018-12-20T14:02:01.079Z,8.20
2018-12-20T14:03:06.585Z,8.20
2018-12-20T14:04:11.990Z,8.20
2018-12-20T14:05:17.546Z,8.10
2018-12-20T14:06:22.908Z,8.20
2018-12-20T14:07:28.483Z,8.10
2018-12-20T14:08:34.493Z,8.20
2018-12-20T14:09:39.896Z,8.10
2018-12-20T14:10:45.338Z,8.10
2018-12-20T14:11:50.774Z,8.10
2018-12-20T14:12:56.155Z,8.20
2018-12-20T14:14:02.079Z,8.10
2018-12-20T14:15:09.844Z,8.10
2018-12-20T14:16:15.287Z,8.10
2018-12-20T14:17:20.722Z,8.00
2018-12-20T14:18:30.917Z,8.00
2018-12-20T14:19:33.739Z,8.00
2018-12-20T14:20:39.275Z,7.90
2018-12-20T14:21:44.745Z,7.90
2018-12-20T14:22:50.395Z,7.90
2018-12-20T14:23:55.778Z,7.90
2018-12-20T14:25:01.199Z,7.90
2018-12-20T14:26:06.786Z,7.90
2018-12-20T14:27:12.616Z,7.80
2018-12-20T14:28:18.155Z,7.80
2018-12-20T14:29:23.787Z,7.80
2018-12-20T14:30:29.210Z,7.80
2018-12-20T14:31:34.633Z,7.80
2018-12-20T14:32:40.123Z,7.70
2018-12-20T14:33:45.703Z,7.80
2018-12-20T14:34:51.118Z,7.80
2018-12-20T14:35:56.790Z,7.80
2018-12-20T14:37:02.315Z,7.80
2018-12-20T14:38:12.854Z,7.80
2018-12-20T14:39:18.547Z,7.80
2018-12-20T14:40:24.137Z,7.80
2018-12-20T14:41:32.966Z,7.80
2018-12-20T14:42:38.787Z,7.80
2018-12-20T14:43:44.387Z,7.90
2018-12-20T14:44:49.774Z,7.80
2018-12-20T14:45:55.308Z,7.80
2018-12-20T14:47:00.747Z,7.90
2018-12-20T14:48:06.227Z,7.80
2018-12-20T14:49:11.650Z,7.80
2018-12-20T14:50:17.051Z,7.80